createdAt,value
2023-04-27T00:00:21.871Z,2.60
2023-04-27T00:02:53.535Z,3.50
2023-04-27T00:05:23.355Z,3.10
2023-04-27T00:07:52.095Z,2.17
2023-04-27T00:10:20.996Z,2.57
2023-04-27T00:12:49.495Z,1.77
2023-04-27T00:15:19.122Z,1.80
2023-04-27T00:17:49.065Z,1.90
2023-04-27T00:20:19.210Z,1.80
2023-04-27T00:22:48.818Z,1.47
2023-04-27T00:25:18.328Z,1.97
2023-04-27T00:27:47.727Z,1.53
2023-04-27T00:30:17.216Z,2.00
2023-04-27T00:32:46.033Z,1.70
2023-04-27T00:35:21.237Z,1.70
2023-04-27T00:37:49.718Z,2.47
2023-04-27T00:40:19.127Z,1.93
2023-04-27T00:42:47.877Z,2.13
2023-04-27T00:45:16.538Z,2.10
2023-04-27T00:47:47.040Z,2.00
2023-04-27T00:50:17.051Z,1.60
2023-04-27T00:52:45.776Z,1.90
2023-04-27T00:55:14.417Z,1.87
2023-04-27T00:57:44.810Z,2.63
2023-04-27T01:00:14.297Z,3.10
2023-04-27T01:02:45.329Z,2.40
2023-04-27T01:05:13.875Z,1.90
2023-04-27T01:07:44.522Z,1.57
2023-04-27T01:10:31.951Z,1.90
2023-04-27T01:13:00.594Z,2.47
2023-04-27T01:15:29.589Z,1.83
2023-04-27T01:18:01.469Z,1.70
2023-04-27T01:20:30.330Z,2.07
2023-04-27T01:23:01.500Z,2.60
2023-04-27T01:25:50.227Z,2.37
2023-04-27T01:28:21.385Z,1.97
2023-04-27T01:30:51.944Z,2.30
2023-04-27T01:33:21.408Z,1.93
2023-04-27T01:35:50.887Z,1.77
2023-04-27T01:38:24.291Z,2.43
2023-04-27T01:40:53.086Z,2.07
2023-04-27T01:43:24.277Z,1.87
2023-04-27T01:45:52.904Z,2.43
2023-04-27T01:48:21.401Z,1.90
2023-04-27T01:50:50.870Z,2.50
2023-04-27T01:53:19.548Z,2.50
2023-04-27T01:55:48.486Z,1.47
2023-04-27T01:58:17.603Z,2.33
2023-04-27T02:00:48.180Z,2.50
2023-04-27T02:03:17.007Z,2.60
2023-04-27T02:05:47.368Z,2.13
2023-04-27T02:08:16.409Z,2.40
2023-04-27T02:10:45.314Z,2.37
2023-04-27T02:13:13.742Z,2.07
2023-04-27T02:15:42.723Z,2.13
2023-04-27T02:18:14.720Z,2.30
2023-04-27T02:20:43.874Z,2.50
2023-04-27T02:23:13.357Z,2.80
2023-04-27T02:25:47.085Z,1.50
2023-04-27T02:28:15.771Z,2.10
2023-04-27T02:30:46.356Z,1.90
2023-04-27T02:33:16.125Z,2.23
2023-04-27T02:35:46.488Z,2.07
2023-04-27T02:38:15.854Z,2.33
2023-04-27T02:40:44.648Z,2.63
2023-04-27T02:43:13.641Z,2.30
2023-04-27T02:45:42.090Z,3.47
2023-04-27T02:48:10.766Z,2.13
2023-04-27T02:50:45.558Z,2.10
2023-04-27T02:53:14.333Z,2.30
2023-04-27T02:55:49.288Z,2.07
2023-04-27T02:58:18.648Z,2.20
2023-04-27T03:00:48.730Z,2.60
2023-04-27T03:03:17.666Z,2.47
2023-04-27T03:05:47.868Z,2.83
2023-04-27T03:08:19.486Z,1.97
2023-04-27T03:10:47.826Z,3.13
2023-04-27T03:13:16.737Z,2.70
2023-04-27T03:15:45.012Z,2.17
2023-04-27T03:18:13.372Z,2.80
2023-04-27T03:20:43.010Z,2.80
2023-04-27T03:23:15.857Z,3.00
2023-04-27T03:25:44.288Z,2.43
2023-04-27T03:28:13.085Z,2.50
2023-04-27T03:30:43.070Z,2.40
2023-04-27T03:33:11.872Z,2.93
2023-04-27T03:35:40.966Z,2.30
2023-04-27T03:38:09.603Z,2.40
2023-04-27T03:40:40.174Z,2.40
2023-04-27T03:43:08.933Z,2.30
2023-04-27T03:45:37.699Z,2.63
2023-04-27T03:48:09.085Z,2.13
2023-04-27T03:50:37.756Z,3.10
2023-04-27T03:53:12.044Z,2.60
2023-04-27T03:55:42.554Z,2.53
2023-04-27T03:58:11.380Z,2.20
2023-04-27T04:00:41.148Z,3.40
2023-04-27T04:03:09.846Z,2.90
2023-04-27T04:05:41.674Z,2.80
2023-04-27T04:08:10.257Z,2.83
2023-04-27T04:10:39.369Z,2.57
2023-04-27T04:13:09.607Z,2.70
2023-04-27T04:15:38.322Z,2.73
2023-04-27T04:18:06.851Z,2.40
2023-04-27T04:20:37.415Z,2.60
2023-04-27T04:23:07.588Z,3.10
2023-04-27T04:25:36.737Z,2.90
2023-04-27T04:28:05.508Z,2.90
2023-04-27T04:30:35.378Z,2.67
2023-04-27T04:33:03.880Z,2.80
2023-04-27T04:35:33.149Z,2.67
2023-04-27T04:38:02.119Z,2.50
2023-04-27T04:40:30.597Z,2.60
2023-04-27T04:42:59.302Z,3.37
2023-04-27T04:45:30.758Z,2.93
2023-04-27T04:48:03.108Z,2.77
2023-04-27T04:50:32.711Z,3.40
2023-04-27T04:55:54.062Z,3.00
2023-04-27T04:58:22.924Z,3.33
2023-04-27T05:00:51.677Z,3.97
2023-04-27T05:03:23.938Z,3.23
2023-04-27T05:05:53.285Z,3.00
2023-04-27T05:08:22.453Z,3.80
2023-04-27T05:10:52.220Z,2.70
2023-04-27T05:13:20.920Z,3.37
2023-04-27T05:15:50.069Z,3.40
2023-04-27T05:18:19.130Z,3.17
2023-04-27T05:20:51.052Z,3.47
2023-04-27T05:23:20.166Z,3.17
2023-04-27T05:25:49.204Z,2.70
2023-04-27T05:28:21.676Z,3.27
2023-04-27T05:31:00.621Z,3.87
2023-04-27T05:33:32.304Z,3.30
2023-04-27T05:36:05.027Z,2.40
2023-04-27T05:38:40.364Z,3.27
2023-04-27T05:41:09.154Z,2.60
2023-04-27T05:43:39.585Z,3.10
2023-04-27T05:46:08.466Z,3.30
2023-04-27T05:48:37.626Z,2.50
2023-04-27T05:51:10.087Z,2.50
2023-04-27T05:53:38.885Z,2.97
2023-04-27T05:56:15.372Z,2.70
2023-04-27T05:58:44.091Z,2.50
2023-04-27T06:01:15.464Z,2.93
2023-04-27T06:03:54.768Z,3.17
2023-04-27T06:06:29.261Z,2.77
2023-04-27T06:12:28.184Z,2.63
2023-04-27T06:14:57.728Z,2.60
2023-04-27T06:17:30.806Z,3.20
2023-04-27T06:20:01.085Z,2.90
2023-04-27T06:22:33.162Z,2.90
2023-04-27T06:25:08.180Z,2.13
2023-04-27T06:27:37.333Z,3.73
2023-04-27T06:30:06.797Z,3.10
2023-04-27T06:32:36.174Z,2.70
2023-04-27T06:35:12.222Z,3.37
2023-04-27T06:37:43.056Z,2.67
2023-04-27T06:40:12.812Z,2.73
2023-04-27T06:42:42.861Z,3.00
2023-04-27T06:45:12.592Z,3.10
2023-04-27T06:47:41.873Z,3.10
2023-04-27T06:50:11.462Z,3.37
2023-04-27T06:52:46.058Z,3.07
2023-04-27T06:55:21.556Z,3.20
2023-04-27T06:57:54.348Z,4.13
2023-04-27T07:00:23.347Z,4.27
2023-04-27T07:02:53.312Z,2.23
2023-04-27T07:05:24.811Z,3.47
2023-04-27T07:07:55.814Z,2.80
2023-04-27T07:13:12.541Z,2.10
2023-04-27T07:15:42.142Z,3.20
2023-04-27T07:18:14.857Z,2.13
2023-04-27T07:21:19.411Z,1.67
2023-04-27T07:23:54.405Z,2.00
2023-04-27T07:26:25.863Z,1.90
2023-04-27T07:28:57.700Z,2.63
2023-04-27T07:31:34.257Z,2.90
2023-04-27T07:34:15.860Z,2.10
2023-04-27T07:36:45.295Z,1.47
2023-04-27T07:39:21.033Z,1.77
2023-04-27T07:41:50.335Z,1.30
2023-04-27T07:44:22.096Z,2.00
2023-04-27T07:47:01.705Z,1.90
2023-04-27T07:49:30.556Z,1.63
2023-04-27T07:52:00.670Z,1.50
2023-04-27T07:54:31.446Z,1.30
2023-04-27T07:57:00.893Z,1.10
2023-04-27T07:59:30.957Z,1.67
2023-04-27T08:02:11.210Z,1.27
2023-04-27T08:04:51.982Z,1.57
2023-04-27T08:07:21.682Z,1.37
2023-04-27T08:09:55.692Z,1.23
2023-04-27T08:12:24.409Z,1.20
2023-04-27T08:15:09.588Z,1.23
2023-04-27T08:18:00.462Z,1.07
2023-04-27T08:20:30.106Z,1.17
2023-04-27T08:23:13.846Z,1.10
2023-04-27T08:25:44.824Z,1.60
2023-04-27T08:28:13.689Z,1.60
2023-04-27T08:30:47.272Z,1.23
2023-04-27T08:33:16.106Z,1.30
2023-04-27T08:35:44.741Z,1.00
2023-04-27T08:38:17.749Z,1.10
2023-04-27T08:41:18.060Z,1.10
2023-04-27T08:43:51.006Z,0.90
2023-04-27T08:46:23.840Z,1.27
2023-04-27T08:48:53.702Z,1.10
2023-04-27T08:51:25.146Z,1.23
2023-04-27T08:56:51.223Z,1.23
2023-04-27T08:59:22.090Z,0.93
2023-04-27T09:01:51.560Z,1.23
2023-04-27T09:04:21.640Z,1.27
2023-04-27T09:06:59.075Z,1.00
2023-04-27T09:09:28.287Z,1.33
2023-04-27T09:11:56.747Z,1.20
2023-04-27T09:14:26.759Z,0.70
2023-04-27T09:16:59.877Z,0.50
2023-04-27T09:19:29.398Z,1.03
2023-04-27T09:22:11.334Z,0.90
2023-04-27T09:24:41.445Z,1.00
2023-04-27T09:27:21.964Z,1.00
2023-04-27T09:29:55.823Z,1.10
2023-04-27T09:32:24.546Z,0.90
2023-04-27T09:34:53.324Z,1.03
2023-04-27T09:37:21.889Z,1.53
2023-04-27T09:39:50.280Z,1.00
2023-04-27T09:42:20.298Z,0.90
2023-04-27T09:44:49.097Z,0.80
2023-04-27T09:47:19.786Z,1.00
2023-04-27T09:49:50.979Z,0.93
2023-04-27T09:52:19.523Z,1.00
2023-04-27T09:54:48.957Z,0.90
2023-04-27T09:57:26.296Z,0.90
2023-04-27T10:00:02.432Z,1.17
2023-04-27T10:02:52.245Z,1.17
2023-04-27T10:05:31.676Z,1.30
2023-04-27T10:08:01.158Z,0.93
2023-04-27T10:10:29.928Z,1.03
2023-04-27T10:12:59.562Z,1.00
2023-04-27T10:15:29.098Z,1.00
2023-04-27T10:18:06.291Z,1.00
2023-04-27T10:20:35.872Z,1.00
2023-04-27T10:23:04.499Z,1.23
2023-04-27T10:25:40.677Z,1.07
2023-04-27T10:28:09.675Z,1.00
2023-04-27T10:30:39.844Z,1.13
2023-04-27T10:33:11.972Z,0.70
2023-04-27T10:35:41.530Z,0.70
2023-04-27T10:38:10.846Z,0.70
2023-04-27T10:40:40.127Z,0.83
2023-04-27T10:43:13.121Z,1.13
2023-04-27T10:45:42.455Z,1.20
2023-04-27T10:48:14.424Z,0.80
2023-04-27T10:50:44.683Z,1.23
2023-04-27T10:53:14.260Z,1.30
2023-04-27T10:55:43.190Z,0.97
2023-04-27T10:58:12.167Z,1.10
2023-04-27T11:00:42.348Z,0.70
2023-04-27T11:03:17.186Z,0.90
2023-04-27T11:05:46.297Z,0.70
2023-04-27T11:08:15.751Z,1.00
2023-04-27T11:10:49.979Z,0.87
2023-04-27T11:13:21.526Z,1.00
2023-04-27T11:15:50.776Z,0.87
2023-04-27T11:18:21.661Z,1.00
2023-04-27T11:20:52.070Z,0.70
2023-04-27T11:23:28.289Z,0.73
2023-04-27T11:25:56.988Z,0.97
2023-04-27T11:28:26.201Z,0.80
2023-04-27T11:30:58.481Z,0.63
2023-04-27T11:33:35.848Z,0.93
2023-04-27T11:36:06.442Z,0.80
2023-04-27T11:38:36.678Z,0.93
2023-04-27T11:41:11.443Z,0.73
2023-04-27T11:43:51.625Z,0.97
2023-04-27T11:46:22.488Z,0.77
2023-04-27T11:48:53.184Z,0.93
2023-04-27T11:51:23.246Z,0.70
2023-04-27T11:53:52.471Z,0.80
2023-04-27T11:56:22.163Z,0.97
2023-04-27T11:58:50.976Z,0.40
2023-04-27T12:01:41.221Z,0.73
2023-04-27T12:04:11.784Z,0.50
2023-04-27T12:06:41.838Z,1.10
2023-04-27T12:09:10.515Z,0.60
2023-04-27T12:11:46.638Z,0.60
2023-04-27T12:14:15.420Z,0.70
2023-04-27T12:16:44.159Z,0.83
2023-04-27T12:19:14.418Z,0.77
2023-04-27T12:21:55.314Z,1.23
2023-04-27T12:24:25.283Z,1.10
2023-04-27T12:26:53.952Z,0.70
2023-04-27T12:29:23.036Z,0.60
2023-04-27T12:31:52.166Z,0.70
2023-04-27T12:34:22.341Z,0.60
2023-04-27T12:36:50.762Z,0.50
2023-04-27T12:39:20.142Z,1.20
2023-04-27T12:41:49.439Z,0.87
2023-04-27T12:44:18.580Z,0.77
2023-04-27T12:46:48.897Z,0.50
2023-04-27T12:49:18.552Z,0.60
2023-04-27T12:51:51.656Z,0.90
2023-04-27T12:54:20.241Z,0.70
2023-04-27T12:56:48.537Z,0.77
2023-04-27T12:59:18.030Z,0.67
2023-04-27T13:01:47.291Z,0.67
2023-04-27T13:04:22.086Z,1.13
2023-04-27T13:06:52.777Z,1.00
2023-04-27T13:09:27.426Z,0.70
2023-04-27T13:12:00.632Z,0.73
2023-04-27T13:14:30.318Z,0.90
2023-04-27T13:16:59.190Z,1.00
2023-04-27T13:19:27.630Z,0.53
2023-04-27T13:21:57.848Z,0.70
2023-04-27T13:24:29.271Z,0.57
2023-04-27T13:26:58.439Z,0.93
2023-04-27T13:29:27.148Z,0.60
2023-04-27T13:31:56.001Z,0.60
2023-04-27T13:34:24.708Z,0.80
2023-04-27T13:36:53.230Z,0.50
2023-04-27T13:39:23.089Z,0.60
2023-04-27T13:41:51.569Z,0.70
2023-04-27T13:44:20.432Z,0.77
2023-04-27T13:46:49.456Z,0.70
2023-04-27T13:49:18.060Z,0.60
2023-04-27T13:51:46.735Z,0.80
2023-04-27T13:54:15.403Z,0.53
2023-04-27T13:56:45.844Z,0.70
2023-04-27T13:59:16.259Z,0.50
2023-04-27T14:01:44.791Z,0.50
2023-04-27T14:04:13.222Z,0.50
2023-04-27T14:06:41.938Z,0.60
2023-04-27T14:09:10.614Z,0.80
2023-04-27T14:11:52.544Z,0.70
2023-04-27T14:14:26.050Z,0.73
2023-04-27T14:16:54.610Z,0.70
2023-04-27T14:19:23.605Z,0.70
2023-04-27T14:21:52.069Z,0.60
2023-04-27T14:24:20.781Z,0.50
2023-04-27T14:26:51.161Z,0.60
2023-04-27T14:29:20.181Z,0.70
2023-04-27T14:31:50.895Z,0.67
2023-04-27T14:34:21.433Z,0.70
2023-04-27T14:36:50.569Z,0.60
2023-04-27T14:39:19.380Z,0.50
2023-04-27T14:41:47.788Z,0.60
2023-04-27T14:44:17.585Z,0.63
2023-04-27T14:46:46.299Z,0.93
2023-04-27T14:49:17.196Z,0.70
2023-04-27T14:51:45.506Z,0.70
2023-04-27T14:54:22.281Z,0.60
2023-04-27T14:56:51.306Z,0.80
2023-04-27T14:59:19.755Z,0.50
2023-04-27T15:01:49.002Z,0.60
2023-04-27T15:04:19.287Z,0.50
2023-04-27T15:06:48.947Z,0.80
2023-04-27T15:09:18.185Z,0.83
2023-04-27T15:11:46.996Z,0.60
2023-04-27T15:14:15.421Z,0.70
2023-04-27T15:16:43.751Z,0.70
2023-04-27T15:19:12.325Z,0.70
2023-04-27T15:21:42.436Z,0.60
2023-04-27T15:24:11.132Z,0.60
2023-04-27T15:26:42.928Z,0.60
2023-04-27T15:29:11.627Z,0.80
2023-04-27T15:31:41.112Z,0.50
2023-04-27T15:34:09.609Z,0.60
2023-04-27T15:36:38.154Z,0.63
2023-04-27T15:39:10.139Z,0.70
2023-04-27T15:41:38.772Z,1.40
2023-04-27T15:44:10.601Z,1.03
2023-04-27T15:46:39.344Z,1.20
2023-04-27T15:49:12.704Z,0.80
2023-04-27T15:51:41.493Z,1.10
2023-04-27T15:54:11.451Z,0.53
2023-04-27T15:56:40.076Z,1.00
2023-04-27T15:59:08.702Z,0.73
2023-04-27T16:01:37.423Z,0.77
2023-04-27T16:04:06.389Z,0.80
2023-04-27T16:06:35.646Z,1.40
2023-04-27T16:09:05.816Z,1.10
2023-04-27T16:11:36.996Z,0.80
2023-04-27T16:14:05.933Z,0.90
2023-04-27T16:16:34.777Z,1.17
2023-04-27T16:19:03.145Z,1.07
2023-04-27T16:21:33.992Z,1.20
2023-04-27T16:24:05.669Z,1.17
2023-04-27T16:26:34.098Z,1.80
2023-04-27T16:29:19.576Z,1.60
2023-04-27T16:34:54.854Z,1.03
2023-04-27T16:37:25.927Z,0.63
2023-04-27T16:39:54.227Z,0.57
2023-04-27T16:42:22.676Z,0.67
2023-04-27T16:44:53.895Z,0.77
2023-04-27T16:47:26.818Z,0.73
2023-04-27T16:49:58.094Z,0.87
2023-04-27T16:52:27.440Z,0.80
2023-04-27T16:54:55.687Z,0.70
2023-04-27T16:57:24.412Z,0.77
2023-04-27T16:59:53.118Z,0.70
2023-04-27T17:02:25.872Z,0.57
2023-04-27T17:04:56.251Z,0.67
2023-04-27T17:07:25.557Z,0.80
2023-04-27T17:09:59.995Z,1.03
2023-04-27T17:12:29.557Z,1.10
2023-04-27T17:15:00.046Z,0.70
2023-04-27T17:17:28.715Z,0.70
2023-04-27T17:20:00.433Z,0.50
2023-04-27T17:22:30.160Z,0.60
2023-04-27T17:25:05.471Z,0.67
2023-04-27T17:27:36.692Z,0.80
2023-04-27T17:32:36.812Z,1.20
2023-04-27T17:35:14.497Z,0.87
2023-04-27T17:37:43.260Z,0.83
2023-04-27T17:40:12.793Z,0.93
2023-04-27T17:42:42.197Z,0.70
2023-04-27T17:45:12.059Z,0.80
2023-04-27T17:47:41.391Z,0.90
2023-04-27T17:50:12.671Z,0.87
2023-04-27T17:52:41.757Z,0.87
2023-04-27T17:55:11.278Z,1.00
2023-04-27T17:57:41.184Z,0.80
2023-04-27T18:00:16.306Z,0.77
2023-04-27T18:02:45.264Z,0.67
2023-04-27T18:05:16.371Z,0.70
2023-04-27T18:07:47.807Z,0.83
2023-04-27T18:10:17.000Z,0.90
2023-04-27T18:12:45.989Z,0.60
2023-04-27T18:15:15.818Z,0.80
2023-04-27T18:20:33.901Z,1.10
2023-04-27T18:23:05.594Z,0.83
2023-04-27T18:28:37.996Z,0.90
2023-04-27T18:31:07.117Z,1.10
2023-04-27T18:33:58.285Z,1.17
2023-04-27T18:43:08.399Z,1.37
2023-04-27T18:49:22.456Z,1.10
2023-04-27T19:01:07.533Z,1.30
2023-04-27T19:03:42.619Z,0.93
2023-04-27T19:06:15.275Z,1.20
2023-04-27T19:12:09.426Z,1.43
2023-04-27T19:18:10.619Z,1.40
2023-04-27T19:23:46.820Z,1.20
2023-04-27T19:26:17.307Z,1.33
2023-04-27T19:28:53.415Z,0.83
2023-04-27T19:31:22.418Z,1.10
2023-04-27T19:33:55.273Z,1.17
2023-04-27T19:36:28.944Z,0.80
2023-04-27T19:38:59.735Z,1.57
2023-04-27T19:44:46.435Z,1.00
2023-04-27T19:47:15.020Z,1.60
2023-04-27T19:49:44.170Z,1.20
2023-04-27T19:52:19.127Z,3.33
2023-04-27T19:54:55.741Z,2.50
2023-04-27T19:57:27.946Z,2.60
2023-04-27T19:59:59.052Z,2.60
2023-04-27T20:02:29.526Z,3.07
2023-04-27T20:04:59.277Z,2.40
2023-04-27T20:07:28.223Z,3.37
2023-04-27T20:09:57.509Z,3.00
2023-04-27T20:12:47.527Z,1.97
2023-04-27T20:15:17.305Z,3.20
2023-04-27T20:17:53.762Z,2.63
2023-04-27T20:20:26.492Z,3.57
2023-04-27T20:22:55.205Z,2.77
2023-04-27T20:25:25.968Z,2.90
2023-04-27T20:27:54.369Z,3.03
2023-04-27T20:30:24.699Z,2.50
2023-04-27T20:32:53.492Z,2.70
2023-04-27T20:35:22.021Z,3.43
2023-04-27T20:37:50.447Z,2.80
2023-04-27T20:40:19.078Z,3.27
2023-04-27T20:42:49.508Z,3.40
2023-04-27T20:45:18.968Z,3.33
2023-04-27T20:47:54.139Z,2.77
2023-04-27T20:50:22.823Z,2.70
2023-04-27T20:52:51.555Z,2.80
2023-04-27T20:55:20.487Z,3.13
2023-04-27T20:57:49.914Z,2.83
2023-04-27T21:00:32.738Z,3.00
2023-04-27T21:03:03.244Z,2.73
2023-04-27T21:05:31.969Z,2.67
2023-04-27T21:08:00.700Z,3.33
2023-04-27T21:10:29.433Z,2.83
2023-04-27T21:12:58.289Z,2.40
2023-04-27T21:15:27.670Z,3.10
2023-04-27T21:17:56.549Z,3.23
2023-04-27T21:20:30.286Z,2.80
2023-04-27T21:22:59.065Z,3.40
2023-04-27T21:25:28.677Z,3.63
2023-04-27T21:27:57.141Z,3.67
2023-04-27T21:30:31.472Z,2.60
2023-04-27T21:33:00.255Z,3.40
2023-04-27T21:35:32.460Z,3.00
2023-04-27T21:38:03.544Z,3.50
2023-04-27T21:40:33.116Z,2.53
2023-04-27T21:43:08.490Z,2.90
2023-04-27T21:45:38.417Z,2.97
2023-04-27T21:48:08.028Z,2.67
2023-04-27T21:50:38.789Z,2.80
2023-04-27T21:53:07.660Z,2.80
2023-04-27T21:55:36.153Z,2.40
2023-04-27T21:58:05.108Z,2.80
2023-04-27T22:00:35.146Z,2.33
2023-04-27T22:03:05.227Z,3.00
2023-04-27T22:05:37.599Z,2.53
2023-04-27T22:08:09.018Z,2.70
2023-04-27T22:10:39.025Z,3.40
2023-04-27T22:13:19.008Z,3.17
2023-04-27T22:15:50.962Z,2.90
2023-04-27T22:18:20.118Z,3.13
2023-04-27T22:20:49.660Z,2.40
2023-04-27T22:23:20.220Z,2.87
2023-04-27T22:25:48.724Z,2.90
2023-04-27T22:28:17.576Z,2.70
2023-04-27T22:30:46.597Z,3.30
2023-04-27T22:35:57.897Z,3.17
2023-04-27T22:38:28.379Z,2.63
2023-04-27T22:41:00.200Z,3.60
2023-04-27T22:43:28.832Z,2.70
2023-04-27T22:46:16.037Z,2.90
2023-04-27T22:48:46.861Z,3.10
2023-04-27T22:51:23.809Z,3.00
2023-04-27T22:53:55.881Z,3.63
2023-04-27T22:56:26.965Z,2.80
2023-04-27T22:58:56.726Z,4.00
2023-04-27T23:01:27.751Z,3.30
2023-04-27T23:03:56.668Z,3.30
2023-04-27T23:06:28.332Z,3.50
2023-04-27T23:08:59.313Z,3.80
2023-04-27T23:11:29.159Z,3.03
2023-04-27T23:13:57.739Z,2.83
2023-04-27T23:16:27.258Z,3.30
2023-04-27T23:18:57.244Z,3.00
2023-04-27T23:21:28.688Z,3.77
2023-04-27T23:23:59.412Z,3.43
2023-04-27T23:26:28.384Z,3.10
2023-04-27T23:28:59.050Z,3.30
2023-04-27T23:31:27.797Z,3.67
2023-04-27T23:33:57.016Z,3.27
2023-04-27T23:36:25.832Z,3.60
2023-04-27T23:38:54.938Z,3.23
2023-04-27T23:41:25.910Z,3.37
2023-04-27T23:43:54.945Z,2.50
2023-04-27T23:46:26.249Z,3.00
2023-04-27T23:48:55.831Z,3.30
2023-04-27T23:51:25.321Z,3.53
2023-04-27T23:53:58.615Z,2.67
2023-04-27T23:56:28.975Z,2.20
2023-04-27T23:59:01.902Z,2.47
